ITY1415 LIRF-LIRA
Flight info
| Callsign | ITY1415 |
|---|---|
| Flight time | 0h 38m |
| Altitude | 31000 |
| Route | KONUT DCT TURMO DCT POKAV DCT ROXAN/N0458F300 DCT ESINO |
| Aircraft | B738/M-SDE2E3FGHIRWXY/LB1 |
Departure
| Time | 2026-05-04 21:22 |
|---|---|
| Airport | Rome–Fiumicino Leonardo da Vinci International Airport (LIRF) |
Arrival
| Time | 2026-05-04 22:00 |
|---|---|
| Airport | Ciampino–G. B. Pastine International Airport (LIRA) |
| Time | Latitude | Longitude | Altitude | Speed | Heading |
|---|---|---|---|---|---|
| 2026-05-04 20:32 | 41.80242 | 12.26320 | 14 ft | 0 kts | 204° |
| 2026-05-04 21:10 | 41.80251 | 12.26325 | 16 ft | 3 kts | 220° |
| 2026-05-04 21:11 | 41.80262 | 12.26344 | 14 ft | 3 kts | 251° |
| 2026-05-04 21:11 | 41.80265 | 12.26368 | 14 ft | 3 kts | 283° |
| 2026-05-04 21:11 | 41.80265 | 12.26372 | 14 ft | 0 kts | 287° |
| 2026-05-04 21:11 | 41.80266 | 12.26368 | 14 ft | 1 kts | 290° |
| 2026-05-04 21:12 | 41.80271 | 12.26352 | 14 ft | 3 kts | 297° |
| 2026-05-04 21:12 | 41.80292 | 12.26312 | 14 ft | 8 kts | 306° |
| 2026-05-04 21:12 | 41.80302 | 12.26292 | 14 ft | 0 kts | 303° |
| 2026-05-04 21:15 | 41.80305 | 12.26286 | 14 ft | 4 kts | 303° |
| 2026-05-04 21:15 | 41.80327 | 12.26244 | 14 ft | 7 kts | 310° |
| 2026-05-04 21:15 | 41.80365 | 12.26196 | 14 ft | 0 kts | 316° |
| 2026-05-04 21:16 | 41.80370 | 12.26190 | 14 ft | 3 kts | 319° |
| 2026-05-04 21:16 | 41.80396 | 12.26172 | 14 ft | 6 kts | 339° |
| 2026-05-04 21:16 | 41.80447 | 12.26171 | 14 ft | 9 kts | 8° |
| 2026-05-04 21:16 | 41.80511 | 12.26214 | 16 ft | 12 kts | 45° |
| 2026-05-04 21:17 | 41.80552 | 12.26321 | 15 ft | 14 kts | 69° |
| 2026-05-04 21:17 | 41.80591 | 12.26461 | 16 ft | 17 kts | 69° |
| 2026-05-04 21:17 | 41.80632 | 12.26615 | 14 ft | 18 kts | 70° |
| 2026-05-04 21:17 | 41.80678 | 12.26779 | 14 ft | 19 kts | 70° |
| 2026-05-04 21:18 | 41.80722 | 12.26940 | 17 ft | 15 kts | 69° |
| 2026-05-04 21:18 | 41.80791 | 12.27043 | 14 ft | 16 kts | 5° |
| 2026-05-04 21:18 | 41.80851 | 12.27023 | 14 ft | 0 kts | 341° |
| 2026-05-04 21:21 | 41.80852 | 12.27022 | 14 ft | 1 kts | 341° |
| 2026-05-04 21:21 | 41.80894 | 12.27002 | 16 ft | 14 kts | 339° |
| 2026-05-04 21:22 | 41.80948 | 12.26886 | 14 ft | 19 kts | 252° |
| 2026-05-04 21:22 | 41.80826 | 12.26455 | 17 ft | 96 kts | 248° |
| 2026-05-04 21:22 | 41.80499 | 12.25281 | 388 ft | 147 kts | 248° |
| 2026-05-04 21:22 | 41.80187 | 12.24043 | 1710 ft | 143 kts | 246° |
| 2026-05-04 21:23 | 41.79817 | 12.22718 | 2673 ft | 160 kts | 245° |
| 2026-05-04 21:23 | 41.79412 | 12.21264 | 3555 ft | 177 kts | 249° |
| 2026-05-04 21:23 | 41.79252 | 12.19498 | 4187 ft | 209 kts | 263° |
| 2026-05-04 21:23 | 41.79187 | 12.17368 | 4134 ft | 234 kts | 265° |
| 2026-05-04 21:24 | 41.79149 | 12.15037 | 4165 ft | 263 kts | 265° |
| 2026-05-04 21:24 | 41.79109 | 12.12637 | 4171 ft | 257 kts | 265° |
| 2026-05-04 21:24 | 41.79050 | 12.10166 | 4553 ft | 271 kts | 265° |
| 2026-05-04 21:24 | 41.79006 | 12.07705 | 6170 ft | 267 kts | 266° |
| 2026-05-04 21:25 | 41.78999 | 12.05203 | 7413 ft | 269 kts | 267° |
| 2026-05-04 21:25 | 41.79013 | 12.02671 | 8537 ft | 276 kts | 268° |
| 2026-05-04 21:25 | 41.79025 | 12.00087 | 9687 ft | 280 kts | 268° |
| 2026-05-04 21:25 | 41.79020 | 11.97453 | 10720 ft | 290 kts | 268° |
| 2026-05-04 21:26 | 41.79009 | 11.94690 | 11503 ft | 300 kts | 268° |
| 2026-05-04 21:26 | 41.79002 | 11.91879 | 12481 ft | 305 kts | 268° |
| 2026-05-04 21:26 | 41.78992 | 11.89031 | 13544 ft | 308 kts | 268° |
| 2026-05-04 21:26 | 41.78983 | 11.86150 | 14491 ft | 312 kts | 269° |
| 2026-05-04 21:27 | 41.78972 | 11.83234 | 15422 ft | 315 kts | 268° |
| 2026-05-04 21:27 | 41.78959 | 11.80281 | 16353 ft | 319 kts | 268° |
| 2026-05-04 21:27 | 41.78947 | 11.77299 | 17248 ft | 323 kts | 268° |
| 2026-05-04 21:27 | 41.78933 | 11.74275 | 18160 ft | 327 kts | 268° |
| 2026-05-04 21:28 | 41.78919 | 11.71214 | 18974 ft | 331 kts | 268° |
| 2026-05-04 21:28 | 41.78903 | 11.68119 | 19766 ft | 335 kts | 268° |
| 2026-05-04 21:28 | 41.78886 | 11.64995 | 20626 ft | 336 kts | 268° |
| 2026-05-04 21:28 | 41.78869 | 11.61881 | 21566 ft | 335 kts | 268° |
| 2026-05-04 21:29 | 41.78869 | 11.58771 | 22506 ft | 334 kts | 271° |
| 2026-05-04 21:29 | 41.79304 | 11.55734 | 23525 ft | 333 kts | 287° |
| 2026-05-04 21:29 | 41.80353 | 11.52965 | 24345 ft | 337 kts | 302° |
| 2026-05-04 21:29 | 41.81829 | 11.50568 | 25274 ft | 333 kts | 306° |
| 2026-05-04 21:30 | 41.83344 | 11.48231 | 26051 ft | 332 kts | 307° |
| 2026-05-04 21:30 | 41.84869 | 11.45903 | 26061 ft | 329 kts | 307° |
| 2026-05-04 21:30 | 41.86372 | 11.43594 | 26094 ft | 335 kts | 306° |
| 2026-05-04 21:30 | 41.87882 | 11.41242 | 26094 ft | 332 kts | 306° |
| 2026-05-04 21:31 | 41.90890 | 11.36536 | 26122 ft | 333 kts | 306° |
| 2026-05-04 21:31 | 41.92396 | 11.34187 | 26132 ft | 333 kts | 306° |
| 2026-05-04 21:31 | 41.93907 | 11.31832 | 26129 ft | 333 kts | 306° |
| 2026-05-04 21:32 | 41.95415 | 11.29479 | 26154 ft | 333 kts | 306° |
| 2026-05-04 21:32 | 41.96925 | 11.27118 | 26173 ft | 334 kts | 306° |
| 2026-05-04 21:32 | 41.98431 | 11.24761 | 26171 ft | 333 kts | 306° |
| 2026-05-04 21:32 | 41.99939 | 11.22398 | 26149 ft | 334 kts | 306° |
| 2026-05-04 21:33 | 42.01447 | 11.20035 | 26138 ft | 333 kts | 306° |
| 2026-05-04 21:33 | 42.02954 | 11.17671 | 26124 ft | 334 kts | 306° |
| 2026-05-04 21:33 | 42.04463 | 11.15303 | 26115 ft | 334 kts | 306° |
| 2026-05-04 21:33 | 42.05972 | 11.12934 | 26109 ft | 334 kts | 306° |
| 2026-05-04 21:34 | 42.07482 | 11.10559 | 26107 ft | 335 kts | 305° |
| 2026-05-04 21:34 | 42.08993 | 11.08182 | 26099 ft | 335 kts | 305° |
| 2026-05-04 21:34 | 42.10501 | 11.05807 | 26096 ft | 335 kts | 305° |
| 2026-05-04 21:34 | 42.12009 | 11.03430 | 26093 ft | 335 kts | 305° |
| 2026-05-04 21:35 | 42.13601 | 11.01121 | 26087 ft | 339 kts | 311° |
| 2026-05-04 21:35 | 42.15337 | 10.98972 | 26095 ft | 340 kts | 311° |
| 2026-05-04 21:35 | 42.17006 | 10.96740 | 26141 ft | 338 kts | 307° |
| 2026-05-04 21:35 | 42.18551 | 10.94361 | 26223 ft | 339 kts | 304° |
| 2026-05-04 21:36 | 42.20035 | 10.91907 | 26262 ft | 337 kts | 304° |
| 2026-05-04 21:36 | 42.21526 | 10.89469 | 26269 ft | 338 kts | 305° |
| 2026-05-04 21:36 | 42.23048 | 10.87074 | 26206 ft | 336 kts | 306° |
| 2026-05-04 21:36 | 42.24590 | 10.84707 | 26139 ft | 337 kts | 306° |
| 2026-05-04 21:37 | 42.26133 | 10.82339 | 26108 ft | 336 kts | 306° |
| 2026-05-04 21:37 | 42.27691 | 10.79989 | 26082 ft | 340 kts | 310° |
| 2026-05-04 21:37 | 42.29594 | 10.78053 | 26091 ft | 349 kts | 324° |
| 2026-05-04 21:37 | 42.31885 | 10.76837 | 26093 ft | 359 kts | 340° |
| 2026-05-04 21:38 | 42.34316 | 10.76031 | 26095 ft | 362 kts | 341° |
| 2026-05-04 21:38 | 42.36763 | 10.75309 | 26087 ft | 361 kts | 342° |
| 2026-05-04 21:38 | 42.39210 | 10.74607 | 26090 ft | 361 kts | 342° |
| 2026-05-04 21:38 | 42.41653 | 10.73879 | 26095 ft | 360 kts | 341° |
| 2026-05-04 21:39 | 42.44088 | 10.73124 | 26104 ft | 359 kts | 341° |
| 2026-05-04 21:39 | 42.46520 | 10.72370 | 26105 ft | 360 kts | 341° |
| 2026-05-04 21:39 | 42.48962 | 10.71614 | 26100 ft | 360 kts | 341° |
| 2026-05-04 21:39 | 42.51402 | 10.70858 | 26097 ft | 360 kts | 341° |
| 2026-05-04 21:40 | 42.53838 | 10.70102 | 26098 ft | 360 kts | 341° |
| 2026-05-04 21:40 | 42.56280 | 10.69343 | 26104 ft | 361 kts | 341° |
| 2026-05-04 21:40 | 42.58754 | 10.68740 | 26065 ft | 369 kts | 352° |
| 2026-05-04 21:40 | 42.61306 | 10.69252 | 26097 ft | 379 kts | 15° |
| 2026-05-04 21:41 | 42.63565 | 10.71134 | 26112 ft | 388 kts | 42° |
| 2026-05-04 21:41 | 42.65103 | 10.74140 | 26109 ft | 390 kts | 68° |
| 2026-05-04 21:41 | 42.65620 | 10.77710 | 26094 ft | 386 kts | 94° |
| 2026-05-04 21:41 | 42.65041 | 10.81173 | 26096 ft | 375 kts | 120° |
| 2026-05-04 21:42 | 42.63669 | 10.84117 | 26112 ft | 369 kts | 134° |
| 2026-05-04 21:42 | 42.62021 | 10.86758 | 26114 ft | 366 kts | 136° |
| 2026-05-04 21:42 | 42.60443 | 10.89479 | 26120 ft | 370 kts | 130° |
| 2026-05-04 21:42 | 42.59043 | 10.92432 | 26126 ft | 373 kts | 125° |
| 2026-05-04 21:43 | 42.57762 | 10.95499 | 26122 ft | 375 kts | 124° |
| 2026-05-04 21:43 | 42.56473 | 10.98562 | 26125 ft | 373 kts | 125° |
| 2026-05-04 21:43 | 42.55122 | 11.01552 | 26113 ft | 373 kts | 127° |
| 2026-05-04 21:43 | 42.53721 | 11.04496 | 26105 ft | 372 kts | 128° |
| 2026-05-04 21:44 | 42.52315 | 11.07435 | 26106 ft | 373 kts | 128° |
| 2026-05-04 21:44 | 42.50925 | 11.10399 | 26112 ft | 373 kts | 127° |
| 2026-05-04 21:44 | 42.49553 | 11.13382 | 26113 ft | 374 kts | 127° |
| 2026-05-04 21:44 | 42.48184 | 11.16363 | 26112 ft | 374 kts | 127° |
| 2026-05-04 21:45 | 42.46805 | 11.19346 | 26107 ft | 374 kts | 127° |
| 2026-05-04 21:45 | 42.45446 | 11.22344 | 26102 ft | 377 kts | 123° |
| 2026-05-04 21:45 | 42.44445 | 11.25638 | 26117 ft | 382 kts | 110° |
| 2026-05-04 21:45 | 42.43984 | 11.29202 | 26130 ft | 388 kts | 96° |
| 2026-05-04 21:46 | 42.43859 | 11.32849 | 26136 ft | 390 kts | 94° |
| 2026-05-04 21:46 | 42.43775 | 11.36500 | 26169 ft | 389 kts | 94° |
| 2026-05-04 21:46 | 42.43701 | 11.40156 | 26148 ft | 388 kts | 94° |
| 2026-05-04 21:46 | 42.43614 | 11.43813 | 25677 ft | 392 kts | 94° |
| 2026-05-04 21:47 | 42.43447 | 11.47472 | 25141 ft | 393 kts | 102° |
| 2026-05-04 21:47 | 42.42589 | 11.50951 | 24548 ft | 389 kts | 121° |
| 2026-05-04 21:47 | 42.41301 | 11.54171 | 23957 ft | 392 kts | 123° |
| 2026-05-04 21:47 | 42.39890 | 11.57322 | 23261 ft | 394 kts | 126° |
| 2026-05-04 21:48 | 42.38394 | 11.60437 | 22524 ft | 393 kts | 127° |
| 2026-05-04 21:48 | 42.36934 | 11.63485 | 21797 ft | 382 kts | 126° |
| 2026-05-04 21:48 | 42.35549 | 11.66482 | 21118 ft | 372 kts | 125° |
| 2026-05-04 21:48 | 42.34224 | 11.69421 | 20465 ft | 362 kts | 124° |
| 2026-05-04 21:49 | 42.32939 | 11.72275 | 19853 ft | 352 kts | 125° |
| 2026-05-04 21:49 | 42.31668 | 11.75059 | 19266 ft | 343 kts | 125° |
| 2026-05-04 21:49 | 42.30407 | 11.77786 | 18721 ft | 345 kts | 125° |
| 2026-05-04 21:49 | 42.29127 | 11.80544 | 18117 ft | 349 kts | 125° |
| 2026-05-04 21:50 | 42.27840 | 11.83329 | 17475 ft | 351 kts | 125° |
| 2026-05-04 21:50 | 42.26561 | 11.86110 | 16836 ft | 346 kts | 124° |
| 2026-05-04 21:50 | 42.25315 | 11.88825 | 16224 ft | 338 kts | 124° |
| 2026-05-04 21:50 | 42.24091 | 11.91484 | 15652 ft | 330 kts | 124° |
| 2026-05-04 21:51 | 42.22892 | 11.94077 | 15094 ft | 323 kts | 124° |
| 2026-05-04 21:51 | 42.21716 | 11.96615 | 14544 ft | 316 kts | 124° |
| 2026-05-04 21:51 | 42.20561 | 11.99106 | 14042 ft | 317 kts | 124° |
| 2026-05-04 21:51 | 42.19372 | 12.01662 | 13633 ft | 323 kts | 124° |
| 2026-05-04 21:52 | 42.18195 | 12.04201 | 13219 ft | 316 kts | 124° |
| 2026-05-04 21:52 | 42.17028 | 12.06720 | 12588 ft | 317 kts | 124° |
| 2026-05-04 21:52 | 42.15858 | 12.09241 | 11967 ft | 317 kts | 124° |
| 2026-05-04 21:52 | 42.14692 | 12.11751 | 11377 ft | 317 kts | 124° |
| 2026-05-04 21:53 | 42.13526 | 12.14256 | 10787 ft | 315 kts | 124° |
| 2026-05-04 21:53 | 42.12368 | 12.16744 | 10222 ft | 313 kts | 124° |
| 2026-05-04 21:53 | 42.11220 | 12.19209 | 9792 ft | 306 kts | 124° |
| 2026-05-04 21:53 | 42.10123 | 12.21567 | 9637 ft | 291 kts | 124° |
| 2026-05-04 21:54 | 42.09073 | 12.23819 | 9601 ft | 281 kts | 124° |
| 2026-05-04 21:54 | 42.08043 | 12.26022 | 9565 ft | 277 kts | 124° |
| 2026-05-04 21:54 | 42.07019 | 12.28208 | 9495 ft | 276 kts | 124° |
| 2026-05-04 21:54 | 42.06001 | 12.30382 | 9402 ft | 275 kts | 124° |
| 2026-05-04 21:55 | 42.04985 | 12.32551 | 9293 ft | 275 kts | 124° |
| 2026-05-04 21:55 | 42.03971 | 12.34716 | 9195 ft | 274 kts | 124° |
| 2026-05-04 21:55 | 42.02937 | 12.36921 | 8705 ft | 279 kts | 125° |
| 2026-05-04 21:55 | 42.01919 | 12.39091 | 8179 ft | 271 kts | 125° |
| 2026-05-04 21:56 | 42.00932 | 12.41197 | 7671 ft | 262 kts | 125° |
| 2026-05-04 21:56 | 41.99978 | 12.43232 | 7173 ft | 254 kts | 125° |
| 2026-05-04 21:56 | 41.99042 | 12.45222 | 6634 ft | 251 kts | 126° |
| 2026-05-04 21:56 | 41.97914 | 12.46939 | 6052 ft | 243 kts | 147° |
| 2026-05-04 21:57 | 41.96480 | 12.48075 | 5489 ft | 238 kts | 154° |
| 2026-05-04 21:57 | 41.95019 | 12.49092 | 4922 ft | 236 kts | 155° |
| 2026-05-04 21:57 | 41.93557 | 12.50073 | 4320 ft | 235 kts | 155° |
| 2026-05-04 21:57 | 41.92386 | 12.50867 | 3839 ft | 234 kts | 154° |
| 2026-05-04 21:58 | 41.91069 | 12.51775 | 3334 ft | 232 kts | 154° |
| 2026-05-04 21:58 | 41.89727 | 12.52709 | 2796 ft | 233 kts | 153° |
| 2026-05-04 21:58 | 41.88501 | 12.53560 | 2267 ft | 223 kts | 153° |
| 2026-05-04 21:58 | 41.87632 | 12.54163 | 1872 ft | 202 kts | 153° |
| 2026-05-04 21:59 | 41.86418 | 12.55002 | 1634 ft | 195 kts | 153° |
| 2026-05-04 21:59 | 41.85292 | 12.55781 | 1387 ft | 168 kts | 153° |
| 2026-05-04 21:59 | 41.84267 | 12.56489 | 1117 ft | 157 kts | 153° |
| 2026-05-04 21:59 | 41.83317 | 12.57146 | 953 ft | 154 kts | 152° |
| 2026-05-04 22:00 | 41.82400 | 12.57780 | 739 ft | 144 kts | 153° |
| 2026-05-04 22:00 | 41.81522 | 12.58387 | 542 ft | 141 kts | 153° |
| 2026-05-04 22:00 | 41.80680 | 12.58968 | 371 ft | 136 kts | 153° |
| 2026-05-04 22:00 | 41.80045 | 12.59433 | 391 ft | 43 kts | 194° |
| 2026-05-04 22:01 | 41.79997 | 12.59418 | 393 ft | 0 kts | 197° |
| 2026-05-04 22:01 | 41.79986 | 12.59420 | 394 ft | 5 kts | 172° |
| 2026-05-04 22:01 | 41.79931 | 12.59454 | 395 ft | 10 kts | 161° |
| 2026-05-04 22:02 | 41.79867 | 12.59428 | 390 ft | 11 kts | 224° |
| 2026-05-04 22:02 | 41.79809 | 12.59341 | 394 ft | 14 kts | 222° |
| 2026-05-04 22:02 | 41.79721 | 12.59302 | 397 ft | 13 kts | 180° |
| 2026-05-04 22:02 | 41.79638 | 12.59340 | 400 ft | 12 kts | 152° |
| 2026-05-04 22:03 | 41.79568 | 12.59396 | 403 ft | 11 kts | 146° |
| 2026-05-04 22:03 | 41.79498 | 12.59435 | 405 ft | 11 kts | 197° |
| 2026-05-04 22:03 | 41.79442 | 12.59404 | 405 ft | 9 kts | 175° |
| 2026-05-04 22:03 | 41.79389 | 12.59439 | 408 ft | 8 kts | 145° |
| 2026-05-04 22:04 | 41.79346 | 12.59475 | 411 ft | 6 kts | 156° |
| 2026-05-04 22:04 | 41.79327 | 12.59505 | 407 ft | 0 kts | 107° |